createdAt,value
2023-04-18T00:00:58.930Z,5.70
2023-04-18T00:03:27.009Z,5.63
2023-04-18T00:05:54.453Z,6.65
2023-04-18T00:08:21.745Z,5.85
2023-04-18T00:10:49.007Z,5.13
2023-04-18T00:13:18.378Z,5.80
2023-04-18T00:15:46.343Z,5.43
2023-04-18T00:18:17.320Z,6.75
2023-04-18T00:20:46.117Z,6.10
2023-04-18T00:23:14.044Z,5.75
2023-04-18T00:25:41.685Z,4.97
2023-04-18T00:28:09.904Z,4.85
2023-04-18T00:33:06.740Z,5.65
2023-04-18T00:35:34.012Z,6.28
2023-04-18T00:38:01.244Z,6.43
2023-04-18T00:40:28.463Z,6.10
2023-04-18T00:42:56.165Z,5.10
2023-04-18T00:45:23.404Z,5.45
2023-04-18T00:47:50.662Z,5.72
2023-04-18T00:50:18.215Z,5.17
2023-04-18T00:52:45.498Z,5.25
2023-04-18T00:55:13.183Z,4.83
2023-04-18T00:57:41.201Z,5.40
2023-04-18T01:00:10.499Z,5.70
2023-04-18T01:02:38.353Z,5.18
2023-04-18T01:05:06.175Z,5.50
2023-04-18T01:07:34.077Z,5.07
2023-04-18T01:10:02.334Z,5.07
2023-04-18T01:12:29.551Z,5.07
2023-04-18T01:14:57.311Z,5.75
2023-04-18T01:17:24.586Z,5.28
2023-04-18T01:19:51.785Z,4.87
2023-04-18T01:22:20.533Z,5.40
2023-04-18T01:24:47.730Z,5.30
2023-04-18T01:27:14.933Z,5.10
2023-04-18T01:29:42.261Z,5.38
2023-04-18T01:32:09.649Z,5.40
2023-04-18T01:34:36.885Z,5.70
2023-04-18T01:37:04.122Z,5.95
2023-04-18T01:39:31.500Z,5.18
2023-04-18T01:41:58.698Z,4.97
2023-04-18T01:44:26.246Z,5.23
2023-04-18T01:46:53.467Z,5.30
2023-04-18T01:49:20.731Z,4.70
2023-04-18T01:51:47.951Z,4.65
2023-04-18T01:54:15.488Z,4.90
2023-04-18T01:56:42.867Z,5.25
2023-04-18T01:59:10.124Z,5.25
2023-04-18T02:01:37.376Z,5.23
2023-04-18T02:04:04.631Z,6.88
2023-04-18T02:06:31.930Z,5.70
2023-04-18T02:08:59.179Z,5.07
2023-04-18T02:11:26.439Z,5.30
2023-04-18T02:13:53.949Z,4.87
2023-04-18T02:16:21.411Z,5.00
2023-04-18T02:18:48.670Z,4.80
2023-04-18T02:21:15.918Z,5.38
2023-04-18T02:23:43.128Z,5.33
2023-04-18T02:26:10.435Z,5.45
2023-04-18T02:28:39.167Z,4.73
2023-04-18T02:31:07.348Z,5.63
2023-04-18T02:33:34.601Z,4.90
2023-04-18T02:36:01.895Z,4.85
2023-04-18T02:38:29.123Z,5.80
2023-04-18T02:40:56.429Z,4.82
2023-04-18T02:43:23.702Z,4.50
2023-04-18T02:45:51.079Z,4.57
2023-04-18T02:48:18.372Z,4.87
2023-04-18T02:50:45.603Z,4.97
2023-04-18T02:53:12.845Z,5.38
2023-04-18T02:55:40.057Z,4.82
2023-04-18T02:58:07.251Z,4.72
2023-04-18T03:00:36.050Z,5.80
2023-04-18T03:03:03.426Z,4.75
2023-04-18T03:05:30.778Z,4.27
2023-04-18T03:07:57.944Z,4.83
2023-04-18T03:10:25.169Z,5.03
2023-04-18T03:12:52.374Z,4.72
2023-04-18T03:15:19.657Z,4.68
2023-04-18T03:17:49.192Z,4.57
2023-04-18T03:20:18.782Z,4.45
2023-04-18T03:22:46.264Z,5.20
2023-04-18T03:25:13.474Z,4.93
2023-04-18T03:27:40.922Z,4.40
2023-04-18T03:30:08.491Z,4.55
2023-04-18T03:32:36.482Z,4.90
2023-04-18T03:37:31.093Z,4.70
2023-04-18T03:39:58.305Z,4.88
2023-04-18T03:42:25.562Z,5.07
2023-04-18T03:44:52.790Z,4.68
2023-04-18T03:47:20.600Z,5.40
2023-04-18T03:49:47.925Z,4.85
2023-04-18T03:52:16.036Z,4.65
2023-04-18T03:57:10.342Z,4.25
2023-04-18T03:59:37.592Z,4.75
2023-04-18T04:02:04.963Z,3.95
2023-04-18T04:04:32.388Z,4.70
2023-04-18T04:06:59.824Z,4.50
2023-04-18T04:09:29.655Z,4.67
2023-04-18T04:11:56.845Z,5.93
2023-04-18T04:14:24.678Z,4.20
2023-04-18T04:16:52.597Z,4.20
2023-04-18T04:19:19.961Z,4.13
2023-04-18T04:21:47.236Z,5.43
2023-04-18T04:24:14.620Z,4.20
2023-04-18T04:26:43.340Z,6.00
2023-04-18T04:29:10.834Z,4.97
2023-04-18T04:31:38.068Z,4.20
2023-04-18T04:34:06.255Z,4.57
2023-04-18T04:39:03.571Z,4.30
2023-04-18T04:41:31.648Z,4.40
2023-04-18T04:43:59.632Z,4.30
2023-04-18T04:46:30.285Z,4.20
2023-04-18T04:48:57.838Z,4.30
2023-04-18T04:51:25.060Z,4.32
2023-04-18T04:53:52.538Z,4.15
2023-04-18T04:56:23.064Z,4.68
2023-04-18T04:58:50.515Z,4.93
2023-04-18T05:03:48.319Z,5.05
2023-04-18T05:06:20.580Z,4.18
2023-04-18T05:08:51.239Z,5.32
2023-04-18T05:11:18.818Z,4.47
2023-04-18T05:13:46.030Z,4.28
2023-04-18T05:16:13.303Z,4.43
2023-04-18T05:18:41.589Z,4.90
2023-04-18T05:23:37.104Z,8.00
2023-04-18T05:26:04.908Z,4.88
2023-04-18T05:28:32.402Z,4.43
2023-04-18T05:31:02.514Z,7.43
2023-04-18T05:33:30.302Z,5.35
2023-04-18T05:35:57.976Z,6.95
2023-04-18T05:38:25.538Z,7.72
2023-04-18T05:40:55.476Z,8.13
2023-04-18T05:43:23.268Z,4.55
2023-04-18T05:45:52.508Z,9.63
2023-04-18T05:48:23.277Z,5.43
2023-04-18T05:50:50.523Z,10.10
2023-04-18T05:53:17.770Z,7.90
2023-04-18T05:55:46.569Z,8.00
2023-04-18T05:58:13.778Z,8.68
2023-04-18T06:00:41.064Z,7.47
2023-04-18T06:03:10.662Z,9.10
2023-04-18T06:05:38.579Z,8.35
2023-04-18T06:08:05.993Z,8.18
2023-04-18T06:10:33.290Z,6.68
2023-04-18T06:13:00.536Z,10.57
2023-04-18T06:15:27.760Z,9.47
2023-04-18T06:17:55.023Z,9.97
2023-04-18T06:20:23.217Z,8.03
2023-04-18T06:25:18.047Z,9.53
2023-04-18T06:27:45.301Z,6.72
2023-04-18T06:30:12.682Z,7.70
2023-04-18T06:32:40.352Z,7.30
2023-04-18T06:35:10.471Z,8.15
2023-04-18T06:37:37.750Z,6.35
2023-04-18T06:40:05.360Z,9.07
2023-04-18T06:42:32.580Z,6.60
2023-04-18T06:45:03.455Z,8.43
2023-04-18T06:47:31.203Z,6.65
2023-04-18T06:49:58.541Z,7.05
2023-04-18T06:52:25.918Z,8.73
2023-04-18T06:54:53.123Z,6.15
2023-04-18T06:57:20.409Z,8.52
2023-04-18T06:59:47.693Z,5.63
2023-04-18T07:02:15.441Z,7.93
2023-04-18T07:04:42.859Z,7.35
2023-04-18T07:07:10.215Z,8.10
2023-04-18T07:09:37.407Z,8.97
2023-04-18T07:12:04.683Z,8.93
2023-04-18T07:14:33.990Z,7.93
2023-04-18T07:17:01.687Z,7.72
2023-04-18T07:19:29.004Z,5.60
2023-04-18T07:21:56.395Z,5.32
2023-04-18T07:24:23.992Z,5.45
2023-04-18T07:26:55.201Z,4.90
2023-04-18T07:29:22.551Z,5.70
2023-04-18T07:31:49.981Z,4.85
2023-04-18T07:34:17.925Z,6.53
2023-04-18T07:36:45.516Z,6.13
2023-04-18T07:39:12.776Z,5.28
2023-04-18T07:41:40.019Z,6.37
2023-04-18T07:44:07.662Z,6.37
2023-04-18T07:46:34.992Z,6.13
2023-04-18T07:49:02.451Z,4.37
2023-04-18T07:51:32.951Z,4.63
2023-04-18T07:54:00.196Z,6.40
2023-04-18T07:56:28.132Z,4.97
2023-04-18T07:58:55.691Z,5.38
2023-04-18T08:01:24.789Z,5.63
2023-04-18T08:03:54.083Z,4.90
2023-04-18T08:06:21.668Z,4.40
2023-04-18T08:08:48.895Z,4.90
2023-04-18T08:11:16.566Z,3.80
2023-04-18T08:13:43.807Z,8.50
2023-04-18T08:16:11.067Z,6.83
2023-04-18T08:18:38.503Z,5.77
2023-04-18T08:21:05.896Z,7.20
2023-04-18T08:23:33.120Z,5.88
2023-04-18T08:26:00.361Z,4.30
2023-04-18T08:28:27.576Z,3.40
2023-04-18T08:30:56.552Z,4.47
2023-04-18T08:33:24.364Z,5.65
2023-04-18T08:35:52.087Z,5.55
2023-04-18T08:38:19.653Z,4.05
2023-04-18T08:40:47.112Z,5.03
2023-04-18T08:43:15.176Z,5.07
2023-04-18T08:48:16.339Z,4.57
2023-04-18T08:50:43.789Z,4.55
2023-04-18T08:53:11.438Z,3.70
2023-04-18T08:55:38.828Z,5.32
2023-04-18T08:58:06.995Z,4.70
2023-04-18T09:00:35.228Z,4.72
2023-04-18T09:03:03.738Z,5.32
2023-04-18T09:05:31.257Z,3.60
2023-04-18T09:07:58.494Z,5.87
2023-04-18T09:10:33.421Z,4.47
2023-04-18T09:13:03.071Z,4.10
2023-04-18T09:15:30.871Z,5.20
2023-04-18T09:17:59.069Z,3.50
2023-04-18T09:20:48.887Z,4.07
2023-04-18T09:23:23.459Z,4.28
2023-04-18T09:25:52.350Z,3.80
2023-04-18T09:28:23.257Z,5.40
2023-04-18T09:30:54.327Z,8.48
2023-04-18T09:33:28.493Z,4.75
2023-04-18T09:36:15.741Z,3.95
2023-04-18T09:38:43.087Z,5.78
2023-04-18T09:41:11.241Z,3.70
2023-04-18T09:46:06.000Z,3.28
2023-04-18T09:48:33.240Z,3.13
2023-04-18T09:51:02.259Z,5.13
2023-04-18T09:53:30.208Z,4.70
2023-04-18T09:55:58.314Z,4.75
2023-04-18T10:00:54.765Z,4.75
2023-04-18T10:03:23.542Z,5.10
2023-04-18T10:05:54.429Z,4.80
2023-04-18T10:08:23.277Z,5.30
2023-04-18T10:10:50.895Z,4.18
2023-04-18T10:13:19.087Z,5.15
2023-04-18T10:15:47.226Z,5.68
2023-04-18T10:20:42.036Z,6.97
2023-04-18T10:23:28.145Z,6.15
2023-04-18T10:25:55.482Z,7.45
2023-04-18T10:28:24.512Z,6.13
2023-04-18T10:30:52.904Z,6.05
2023-04-18T10:33:30.846Z,8.52
2023-04-18T10:36:14.956Z,6.30
2023-04-18T10:38:46.990Z,5.45
2023-04-18T10:41:17.356Z,6.50
2023-04-18T10:44:03.568Z,6.07
2023-04-18T10:46:32.784Z,4.85
2023-04-18T10:49:16.160Z,5.18
2023-04-18T10:51:44.586Z,7.80
2023-04-18T10:54:17.840Z,8.00
2023-04-18T10:56:59.036Z,6.97
2023-04-18T10:59:26.981Z,7.03
2023-04-18T11:01:58.474Z,7.07
2023-04-18T11:04:25.986Z,5.55
2023-04-18T11:06:57.087Z,6.25
2023-04-18T11:09:24.768Z,9.00
2023-04-18T11:12:04.392Z,5.55
2023-04-18T11:14:41.602Z,6.22
2023-04-18T11:17:18.959Z,5.33
2023-04-18T11:19:46.297Z,5.53
2023-04-18T11:22:14.113Z,6.73
2023-04-18T11:24:41.601Z,5.47
2023-04-18T11:27:12.829Z,7.00
2023-04-18T11:29:40.189Z,7.65
2023-04-18T11:32:10.833Z,8.30
2023-04-18T11:34:38.134Z,7.13
2023-04-18T11:37:08.557Z,6.55
2023-04-18T11:39:36.494Z,7.15
2023-04-18T11:42:03.802Z,9.00
2023-04-18T11:44:31.013Z,8.67
2023-04-18T11:46:58.389Z,8.15
2023-04-18T11:49:29.431Z,9.05
2023-04-18T11:51:57.088Z,6.80
2023-04-18T11:54:40.467Z,8.15
2023-04-18T11:57:18.922Z,10.57
2023-04-18T11:59:56.819Z,8.75
2023-04-18T12:02:25.415Z,7.28
2023-04-18T12:04:53.935Z,7.93
2023-04-18T12:07:50.703Z,6.70
2023-04-18T12:10:21.036Z,7.88
2023-04-18T12:12:48.988Z,6.90
2023-04-18T12:15:16.762Z,8.43
2023-04-18T12:17:54.358Z,6.70
2023-04-18T12:20:24.852Z,6.32
2023-04-18T12:22:54.241Z,6.13
2023-04-18T12:25:27.362Z,7.13
2023-04-18T12:27:56.316Z,6.28
2023-04-18T12:30:24.745Z,4.60
2023-04-18T12:32:56.450Z,7.32
2023-04-18T12:35:24.084Z,8.98
2023-04-18T12:37:52.142Z,5.20
2023-04-18T12:40:19.634Z,4.25
2023-04-18T12:42:47.957Z,8.10
2023-04-18T12:45:16.162Z,6.07
2023-04-18T12:50:11.703Z,5.70
2023-04-18T12:52:40.063Z,6.35
2023-04-18T12:55:10.366Z,6.63
2023-04-18T12:57:37.889Z,5.30
2023-04-18T13:00:11.169Z,5.97
2023-04-18T13:02:39.431Z,4.95
2023-04-18T13:05:07.882Z,5.90
2023-04-18T13:07:37.354Z,5.90
2023-04-18T13:10:05.147Z,4.35
2023-04-18T13:12:32.519Z,4.95
2023-04-18T13:14:59.745Z,4.67
2023-04-18T13:17:27.126Z,4.17
2023-04-18T13:19:54.423Z,4.55
2023-04-18T13:22:21.716Z,3.40
2023-04-18T13:24:49.126Z,5.33
2023-04-18T13:27:16.612Z,4.78
2023-04-18T13:29:45.696Z,4.30
2023-04-18T13:32:13.315Z,4.15
2023-04-18T13:34:43.251Z,3.72
2023-04-18T13:37:10.723Z,4.13
2023-04-18T13:39:37.935Z,6.22
2023-04-18T13:42:07.495Z,6.20
2023-04-18T13:44:35.776Z,7.30
2023-04-18T13:47:04.989Z,8.45
2023-04-18T13:49:32.724Z,33.05
2023-04-18T13:52:00.155Z,23.92
2023-04-18T13:54:28.254Z,19.25
2023-04-18T13:59:22.622Z,24.10
2023-04-18T14:01:49.910Z,19.67
2023-04-18T14:04:17.420Z,15.17
2023-04-18T14:06:44.816Z,13.63
2023-04-18T14:09:12.220Z,11.87
2023-04-18T14:11:39.578Z,11.02
2023-04-18T14:14:07.167Z,10.03
2023-04-18T14:16:34.856Z,11.98
2023-04-18T14:19:02.421Z,11.27
2023-04-18T14:21:32.428Z,9.98
2023-04-18T14:23:59.701Z,10.27
2023-04-18T14:26:27.153Z,7.70
2023-04-18T14:28:54.479Z,10.63
2023-04-18T14:31:22.750Z,12.35
2023-04-18T14:33:50.054Z,18.42
2023-04-18T14:36:17.308Z,9.90
2023-04-18T14:38:48.686Z,9.47
2023-04-18T14:41:15.968Z,9.52
2023-04-18T14:43:43.393Z,12.87
2023-04-18T14:46:14.205Z,10.85
2023-04-18T14:48:41.606Z,7.70
2023-04-18T14:51:08.875Z,8.60
2023-04-18T14:53:36.120Z,7.50
2023-04-18T14:56:03.365Z,8.33
2023-04-18T14:58:30.579Z,15.13
2023-04-18T15:00:57.837Z,20.35
2023-04-18T15:03:25.390Z,23.33
2023-04-18T15:05:53.239Z,14.02
2023-04-18T15:08:20.728Z,19.67
2023-04-18T15:10:47.997Z,14.60
2023-04-18T15:13:15.841Z,11.03
2023-04-18T15:15:43.141Z,17.05
2023-04-18T15:18:11.234Z,16.17
2023-04-18T15:23:07.057Z,18.40
2023-04-18T15:25:35.164Z,14.50
2023-04-18T15:30:29.609Z,12.00
2023-04-18T15:32:57.211Z,8.87
2023-04-18T15:35:24.564Z,8.38
2023-04-18T15:37:54.175Z,7.90
2023-04-18T15:40:21.465Z,8.55
2023-04-18T15:42:49.770Z,8.40
2023-04-18T15:45:17.301Z,11.65
2023-04-18T15:47:44.536Z,9.70
2023-04-18T15:50:12.161Z,7.10
2023-04-18T15:52:41.598Z,9.27
2023-04-18T15:55:10.914Z,7.85
2023-04-18T15:57:38.110Z,8.13
2023-04-18T16:00:11.593Z,11.38
2023-04-18T16:02:38.970Z,9.70
2023-04-18T16:05:07.459Z,8.45
2023-04-18T16:07:34.782Z,10.15
2023-04-18T16:10:05.129Z,7.47
2023-04-18T16:12:32.338Z,8.00
2023-04-18T16:14:59.584Z,11.15
2023-04-18T16:17:26.855Z,11.63
2023-04-18T16:19:54.312Z,12.20
2023-04-18T16:22:21.500Z,9.18
2023-04-18T16:24:48.747Z,9.77
2023-04-18T16:27:16.289Z,7.93
2023-04-18T16:29:44.549Z,8.95
2023-04-18T16:32:11.812Z,10.55
2023-04-18T16:34:38.993Z,8.70
2023-04-18T16:37:06.335Z,9.80
2023-04-18T16:39:33.591Z,6.20
2023-04-18T16:42:03.577Z,9.50
2023-04-18T16:44:31.065Z,10.57
2023-04-18T16:46:58.340Z,10.40
2023-04-18T16:49:26.124Z,5.27
2023-04-18T16:51:53.394Z,5.18
2023-04-18T16:54:20.749Z,6.70
2023-04-18T16:56:48.368Z,6.05
2023-04-18T16:59:15.676Z,10.85
2023-04-18T17:01:43.002Z,6.67
2023-04-18T17:04:10.247Z,12.27
2023-04-18T17:06:37.495Z,10.67
2023-04-18T17:09:06.423Z,10.27
2023-04-18T17:11:38.843Z,6.60
2023-04-18T17:14:07.726Z,8.30
2023-04-18T17:19:02.116Z,7.80
2023-04-18T17:21:29.409Z,11.57
2023-04-18T17:23:59.115Z,12.13
2023-04-18T17:26:27.736Z,6.88
2023-04-18T17:28:55.004Z,7.10
2023-04-18T17:31:22.365Z,10.20
2023-04-18T17:33:50.826Z,6.28
2023-04-18T17:36:18.231Z,5.07
2023-04-18T17:38:51.260Z,6.63
2023-04-18T17:41:19.640Z,5.68
2023-04-18T17:43:47.235Z,7.90
2023-04-18T17:46:14.926Z,7.28
2023-04-18T17:48:42.262Z,8.32
2023-04-18T17:51:09.622Z,7.10
2023-04-18T17:53:36.890Z,7.03
2023-04-18T17:56:04.299Z,9.93
2023-04-18T17:58:31.988Z,11.05
2023-04-18T18:00:59.201Z,6.68
2023-04-18T18:03:26.717Z,9.70
2023-04-18T18:05:55.106Z,8.48
2023-04-18T18:08:22.796Z,7.43
2023-04-18T18:10:50.146Z,7.90
2023-04-18T18:13:17.476Z,5.00
2023-04-18T18:15:44.724Z,9.37
2023-04-18T18:18:12.011Z,9.77
2023-04-18T18:20:42.182Z,10.30
2023-04-18T18:23:09.371Z,7.57
2023-04-18T18:25:40.251Z,7.47
2023-04-18T18:28:07.468Z,10.70
2023-04-18T18:30:34.795Z,8.10
2023-04-18T18:33:02.356Z,8.05
2023-04-18T18:35:29.592Z,6.32
2023-04-18T18:37:59.376Z,9.20
2023-04-18T18:40:26.652Z,9.50
2023-04-18T18:42:54.755Z,5.53
2023-04-18T18:45:22.030Z,7.15
2023-04-18T18:47:49.347Z,6.40
2023-04-18T18:50:16.682Z,9.77
2023-04-18T18:52:43.992Z,8.17
2023-04-18T18:55:11.820Z,7.17
2023-04-18T18:57:39.078Z,5.80
2023-04-18T19:00:10.985Z,7.77
2023-04-18T19:02:38.999Z,6.47
2023-04-18T19:07:33.574Z,7.50
2023-04-18T19:10:01.681Z,8.05
2023-04-18T19:12:29.310Z,5.45
2023-04-18T19:14:56.613Z,7.40
2023-04-18T19:17:24.946Z,6.97
2023-04-18T19:19:53.068Z,6.47
2023-04-18T19:22:20.451Z,6.20
2023-04-18T19:24:48.017Z,6.57
2023-04-18T19:27:17.908Z,8.40
2023-04-18T19:29:45.782Z,8.27
2023-04-18T19:32:15.585Z,6.55
2023-04-18T19:34:45.072Z,8.52
2023-04-18T19:37:12.438Z,7.40
2023-04-18T19:39:39.656Z,9.90
2023-04-18T19:42:07.425Z,8.80
2023-04-18T19:44:35.021Z,12.63
2023-04-18T19:47:02.271Z,6.78
2023-04-18T19:49:29.452Z,6.63
2023-04-18T19:51:56.689Z,8.38
2023-04-18T19:54:23.912Z,6.83
2023-04-18T19:56:51.172Z,9.15
2023-04-18T19:59:18.594Z,8.97
2023-04-18T20:01:46.023Z,9.55
2023-04-18T20:04:13.434Z,12.70
2023-04-18T20:06:40.751Z,8.32
2023-04-18T20:09:15.338Z,8.10
2023-04-18T20:11:46.557Z,6.30
2023-04-18T20:14:13.760Z,9.02
2023-04-18T20:16:42.816Z,8.05
2023-04-18T20:19:12.629Z,7.32
2023-04-18T20:21:40.228Z,9.27
2023-04-18T20:24:09.679Z,6.70
2023-04-18T20:26:37.222Z,7.63
2023-04-18T20:29:04.481Z,8.10
2023-04-18T20:31:31.687Z,7.75
2023-04-18T20:33:58.980Z,5.80
2023-04-18T20:36:26.249Z,5.90
2023-04-18T20:38:53.531Z,7.35
2023-04-18T20:41:20.982Z,7.23
2023-04-18T20:43:48.590Z,9.57
2023-04-18T20:46:16.198Z,6.90
2023-04-18T20:48:44.501Z,5.97
2023-04-18T20:53:38.836Z,6.83
2023-04-18T20:56:06.325Z,5.35
2023-04-18T20:58:33.556Z,5.32
2023-04-18T21:01:00.972Z,6.68
2023-04-18T21:03:28.427Z,7.57
2023-04-18T21:05:56.049Z,7.35
2023-04-18T21:08:23.271Z,6.90
2023-04-18T21:10:50.533Z,5.27
2023-04-18T21:13:17.770Z,9.88
2023-04-18T21:15:45.046Z,5.73
2023-04-18T21:18:12.270Z,8.40
2023-04-18T21:20:39.554Z,8.37
2023-04-18T21:23:06.758Z,9.85
2023-04-18T21:25:34.256Z,6.15
2023-04-18T21:28:01.470Z,7.95
2023-04-18T21:30:30.954Z,5.47
2023-04-18T21:32:58.216Z,6.22
2023-04-18T21:35:25.447Z,5.60
2023-04-18T21:37:52.635Z,8.48
2023-04-18T21:40:19.843Z,6.20
2023-04-18T21:42:48.668Z,8.02
2023-04-18T21:45:17.215Z,7.47
2023-04-18T21:47:44.559Z,6.55
2023-04-18T21:50:11.927Z,8.93
2023-04-18T21:52:39.145Z,4.93
2023-04-18T21:55:06.547Z,6.57
2023-04-18T21:57:33.754Z,5.03
2023-04-18T22:00:01.030Z,6.22
2023-04-18T22:02:28.359Z,5.07
2023-04-18T22:04:55.755Z,7.20
2023-04-18T22:07:24.667Z,5.50
2023-04-18T22:09:51.930Z,5.90
2023-04-18T22:12:19.231Z,5.47
2023-04-18T22:14:48.398Z,5.90
2023-04-18T22:17:15.869Z,5.10
2023-04-18T22:19:44.537Z,5.03
2023-04-18T22:22:11.944Z,5.90
2023-04-18T22:24:39.155Z,5.53
2023-04-18T22:27:06.485Z,6.53
2023-04-18T22:29:36.129Z,9.00
2023-04-18T22:32:03.352Z,5.28
2023-04-18T22:34:30.588Z,6.13
2023-04-18T22:36:57.780Z,5.00
2023-04-18T22:39:26.040Z,4.70
2023-04-18T22:41:53.253Z,5.40
2023-04-18T22:44:20.466Z,5.50
2023-04-18T22:46:48.228Z,5.28
2023-04-18T22:49:15.629Z,4.78
2023-04-18T22:51:43.904Z,6.53
2023-04-18T22:54:11.132Z,5.40
2023-04-18T22:56:38.314Z,5.78
2023-04-18T22:59:05.671Z,5.53
2023-04-18T23:01:32.980Z,6.83
2023-04-18T23:04:00.637Z,5.90
2023-04-18T23:06:28.330Z,4.53
2023-04-18T23:08:55.631Z,5.82
2023-04-18T23:11:22.867Z,6.53
2023-04-18T23:13:50.092Z,4.65
2023-04-18T23:16:17.383Z,6.73
2023-04-18T23:18:44.600Z,5.13
2023-04-18T23:21:12.973Z,4.88
2023-04-18T23:23:40.172Z,7.30
2023-04-18T23:26:16.641Z,6.13
2023-04-18T23:28:43.949Z,5.50
2023-04-18T23:31:11.336Z,4.93
2023-04-18T23:33:38.747Z,4.87
2023-04-18T23:36:06.566Z,6.47
2023-04-18T23:38:33.916Z,4.43
2023-04-18T23:41:01.125Z,4.60
2023-04-18T23:43:28.393Z,4.67
2023-04-18T23:45:55.687Z,4.83
2023-04-18T23:48:22.913Z,5.30
2023-04-18T23:50:55.335Z,5.28
2023-04-18T23:53:23.770Z,5.03
2023-04-18T23:55:51.274Z,5.13
2023-04-18T23:58:18.502Z,5.22
